createdAt,value
2022-11-20T00:01:18.145Z,29.83
2022-11-20T00:04:05.989Z,30.10
2022-11-20T00:06:53.904Z,30.00
2022-11-20T00:09:41.824Z,30.47
2022-11-20T00:12:30.961Z,31.43
2022-11-20T00:15:18.707Z,31.50
2022-11-20T00:18:06.640Z,30.83
2022-11-20T00:20:55.188Z,28.53
2022-11-20T00:23:43.488Z,29.90
2022-11-20T00:26:31.276Z,30.10
2022-11-20T00:29:20.308Z,29.97
2022-11-20T00:32:08.442Z,33.43
2022-11-20T00:34:56.268Z,34.30
2022-11-20T00:37:44.203Z,31.60
2022-11-20T00:40:31.919Z,29.07
2022-11-20T00:43:19.437Z,31.67
2022-11-20T00:46:10.414Z,31.03
2022-11-20T00:48:58.347Z,31.63
2022-11-20T00:51:45.783Z,34.63
2022-11-20T00:54:33.708Z,40.40
2022-11-20T00:57:21.482Z,45.43
2022-11-20T01:00:10.521Z,46.07
2022-11-20T01:02:59.575Z,43.13
2022-11-20T01:05:47.233Z,43.47
2022-11-20T01:08:35.816Z,41.93
2022-11-20T01:11:26.334Z,42.50
2022-11-20T01:14:16.975Z,43.33
2022-11-20T01:17:05.819Z,45.43
2022-11-20T01:19:54.741Z,46.00
2022-11-20T01:22:42.159Z,49.90
2022-11-20T01:25:30.047Z,47.30
2022-11-20T01:28:17.803Z,45.03
2022-11-20T01:31:13.430Z,43.77
2022-11-20T01:34:03.263Z,42.90
2022-11-20T01:36:53.733Z,40.80
2022-11-20T01:39:41.323Z,42.67
2022-11-20T01:42:46.314Z,39.53
2022-11-20T01:46:01.109Z,40.40
2022-11-20T01:48:54.102Z,38.83
2022-11-20T01:51:44.682Z,39.77
2022-11-20T01:54:37.383Z,39.17
2022-11-20T01:57:29.022Z,42.60
2022-11-20T02:00:19.943Z,43.07
2022-11-20T02:03:11.281Z,42.00
2022-11-20T02:06:06.018Z,40.83
2022-11-20T02:08:54.500Z,41.27
2022-11-20T02:11:43.475Z,42.10
2022-11-20T02:14:30.321Z,40.97
2022-11-20T02:17:18.222Z,40.57
2022-11-20T02:20:06.932Z,38.23
2022-11-20T02:22:59.971Z,38.90
2022-11-20T02:25:50.141Z,36.97
2022-11-20T02:28:37.806Z,38.83
2022-11-20T02:31:25.603Z,37.17
2022-11-20T02:34:13.568Z,36.87
2022-11-20T02:37:01.933Z,34.93
2022-11-20T02:39:52.694Z,36.97
2022-11-20T02:42:41.653Z,34.53
2022-11-20T02:45:29.047Z,32.93
2022-11-20T02:48:16.907Z,30.10
2022-11-20T02:51:05.136Z,31.13
2022-11-20T02:53:53.097Z,31.30
2022-11-20T02:56:41.235Z,31.30
2022-11-20T02:59:30.489Z,29.20
2022-11-20T03:02:18.538Z,29.67
2022-11-20T03:05:06.513Z,30.80
2022-11-20T03:07:54.471Z,29.67
2022-11-20T03:10:42.308Z,29.67
2022-11-20T03:13:30.104Z,29.27
2022-11-20T03:16:21.282Z,30.80
2022-11-20T03:19:09.118Z,30.73
2022-11-20T03:21:56.642Z,28.17
2022-11-20T03:24:44.363Z,27.93
2022-11-20T07:14:32.818Z,25.07
2022-11-20T07:17:20.306Z,28.03
2022-11-20T07:20:09.015Z,27.53
2022-11-20T07:22:57.022Z,28.83
2022-11-20T07:25:44.892Z,29.67
2022-11-20T07:28:34.239Z,26.87
2022-11-20T07:31:21.962Z,27.00
2022-11-20T07:34:09.627Z,28.80
2022-11-20T07:36:57.385Z,31.93
2022-11-20T07:39:45.396Z,31.73
2022-11-20T07:42:33.000Z,31.63
2022-11-20T07:45:23.327Z,30.37
2022-11-20T07:48:10.826Z,39.73
2022-11-20T07:50:59.211Z,40.00
2022-11-20T07:53:47.100Z,39.00
2022-11-20T08:19:20.973Z,43.83
2022-11-20T08:22:08.731Z,39.13
2022-11-20T08:24:56.747Z,35.50
2022-11-20T08:27:44.473Z,34.37
2022-11-20T08:30:32.444Z,33.90
2022-11-20T08:33:20.906Z,33.73
2022-11-20T08:36:10.837Z,32.33
2022-11-20T08:38:58.928Z,31.50
2022-11-20T08:41:46.686Z,30.57
2022-11-20T08:44:34.501Z,31.03
2022-11-20T08:50:11.163Z,26.90
2022-11-20T08:53:04.802Z,27.43
2022-11-20T08:55:52.479Z,27.10
2022-11-20T08:59:09.948Z,27.73
2022-11-20T09:01:47.521Z,25.77
2022-11-20T09:13:11.789Z,24.20
2022-11-20T09:16:01.504Z,23.77
2022-11-20T09:19:07.242Z,24.27
2022-11-20T09:22:01.041Z,24.67
2022-11-20T09:24:48.738Z,26.13
2022-11-20T09:27:37.960Z,26.40
2022-11-20T09:30:25.921Z,25.07
2022-11-20T09:33:13.482Z,25.23
2022-11-20T09:36:01.231Z,23.53
2022-11-20T09:38:49.308Z,24.37
2022-11-20T09:41:53.559Z,21.03
2022-11-20T09:45:03.700Z,20.77
2022-11-20T09:48:14.681Z,21.67
2022-11-20T09:51:11.799Z,20.77
2022-11-20T09:54:15.193Z,20.03
2022-11-20T09:57:07.707Z,18.83
2022-11-20T10:00:01.244Z,20.00
2022-11-20T10:02:55.217Z,20.27
2022-11-20T10:05:46.709Z,21.20
2022-11-20T10:08:42.244Z,21.87
2022-11-20T10:11:37.143Z,22.80
2022-11-20T10:14:34.232Z,21.47
2022-11-20T10:17:36.047Z,22.20
2022-11-20T10:20:30.586Z,20.47
2022-11-20T10:23:38.123Z,19.97
2022-11-20T10:26:34.881Z,20.07
2022-11-20T10:29:30.646Z,21.70
2022-11-20T10:32:25.160Z,21.33
2022-11-20T10:35:24.312Z,20.27
2022-11-20T10:38:19.251Z,22.40
2022-11-20T10:41:25.541Z,20.50
2022-11-20T10:44:37.743Z,20.73
2022-11-20T10:47:25.516Z,20.80
2022-11-20T10:50:22.120Z,19.57
2022-11-20T10:53:23.351Z,20.80
2022-11-20T10:56:21.282Z,21.37
2022-11-20T10:59:38.684Z,22.83
2022-11-20T11:02:35.468Z,21.33
2022-11-20T11:05:35.893Z,21.10
2022-11-20T11:08:28.577Z,20.40
2022-11-20T11:11:23.901Z,18.30
2022-11-20T11:14:12.987Z,17.67
2022-11-20T11:17:00.850Z,18.37
2022-11-20T11:19:58.978Z,17.73
2022-11-20T11:22:49.152Z,18.13
2022-11-20T11:25:39.323Z,17.47
2022-11-20T11:28:28.951Z,17.00
2022-11-20T11:31:25.497Z,16.83
2022-11-20T11:34:15.432Z,16.80
2022-11-20T11:37:05.352Z,17.20
2022-11-20T11:40:22.388Z,16.77
2022-11-20T11:43:06.677Z,17.73
2022-11-20T11:45:55.655Z,17.57
2022-11-20T11:48:45.824Z,17.67
2022-11-20T11:51:44.029Z,18.43
2022-11-20T11:54:37.511Z,19.37
2022-11-20T11:57:32.041Z,18.87
2022-11-20T12:00:23.350Z,18.40
2022-11-20T12:03:18.208Z,17.97
2022-11-20T12:06:12.369Z,17.87
2022-11-20T12:09:04.639Z,17.47
2022-11-20T12:11:57.978Z,16.63
2022-11-20T12:14:50.833Z,16.63
2022-11-20T12:17:39.947Z,16.07
2022-11-20T12:20:33.825Z,16.83
2022-11-20T12:23:30.624Z,15.27
2022-11-20T12:26:29.636Z,16.23
2022-11-20T12:29:27.693Z,15.67
2022-11-20T12:32:43.529Z,14.77
2022-11-20T12:35:55.361Z,13.20
2022-11-20T12:39:14.890Z,14.70
2022-11-20T12:42:51.577Z,15.07
2022-11-20T12:46:19.234Z,13.60
2022-11-20T12:49:18.844Z,15.00
2022-11-20T12:52:22.281Z,15.03
2022-11-20T12:55:22.536Z,15.37
2022-11-20T12:58:14.864Z,14.40
2022-11-20T13:01:09.642Z,14.87
2022-11-20T13:04:03.275Z,15.67
2022-11-20T13:06:53.460Z,14.30
2022-11-20T13:09:47.037Z,13.63
2022-11-20T13:12:38.669Z,13.00
2022-11-20T13:15:46.963Z,13.63
2022-11-20T13:18:40.549Z,14.13
2022-11-20T13:21:38.823Z,13.60
2022-11-20T13:24:30.962Z,13.17
2022-11-20T13:27:24.087Z,13.27
2022-11-20T13:30:19.187Z,14.27
2022-11-20T13:41:39.091Z,14.40
2022-11-20T13:44:31.848Z,15.03
2022-11-20T13:47:24.616Z,15.03
2022-11-20T13:50:12.314Z,14.37
2022-11-20T13:53:12.268Z,13.60
2022-11-20T13:56:07.193Z,12.80
2022-11-20T13:59:05.511Z,14.27
2022-11-20T14:01:56.355Z,14.17
2022-11-20T14:04:47.810Z,13.63
2022-11-20T14:07:40.992Z,15.83
2022-11-20T14:10:32.388Z,14.97
2022-11-20T14:13:22.301Z,13.47
2022-11-20T14:16:11.790Z,13.53
2022-11-20T14:19:26.825Z,16.17
2022-11-20T14:22:21.556Z,16.27
2022-11-20T14:25:24.100Z,15.93
2022-11-20T14:28:21.281Z,14.37
2022-11-20T14:31:23.961Z,12.50
2022-11-20T14:34:19.234Z,11.47
2022-11-20T14:37:16.822Z,10.90
2022-11-20T14:40:07.308Z,10.07
2022-11-20T14:42:55.335Z,10.43
2022-11-20T14:45:43.565Z,9.60
2022-11-20T14:48:35.010Z,8.90
2022-11-20T14:51:33.226Z,9.57
2022-11-20T14:54:24.008Z,10.03
2022-11-20T14:57:24.063Z,9.97
2022-11-20T15:00:22.580Z,9.23
2022-11-20T15:03:18.362Z,11.30
2022-11-20T15:06:06.554Z,12.10
2022-11-20T15:08:55.711Z,11.57
2022-11-20T15:11:55.740Z,12.40
2022-11-20T15:14:43.683Z,12.53
2022-11-20T15:17:32.457Z,13.47
2022-11-20T15:20:20.791Z,12.37
2022-11-20T15:23:13.322Z,12.47
2022-11-20T15:48:53.855Z,14.13
2022-11-20T16:00:10.392Z,17.87
2022-11-20T16:02:58.350Z,18.70
2022-11-20T16:17:15.597Z,23.55
2022-11-20T16:22:50.795Z,21.70
2022-11-20T16:25:38.771Z,22.50
2022-11-20T16:28:26.592Z,23.07
2022-11-20T20:02:08.360Z,32.30
2022-11-20T20:13:19.382Z,30.40
2022-11-20T20:27:20.899Z,36.60
2022-11-20T20:30:12.106Z,39.87
2022-11-20T20:32:59.857Z,43.67
2022-11-20T22:22:47.998Z,58.07
2022-11-20T22:25:35.995Z,53.60
2022-11-20T22:28:25.369Z,51.80
2022-11-20T22:31:13.246Z,52.07
